Time;durP1;ratioP1;P1;durP2;ratioP2;P2;SDS_P1;SDS_P2;PMS_P1;PMS_P2;Temp;Humidity;BMP_temperature;BMP_pressure;BME280_temperature;BME280_humidity;BME280_pressure;Samples;Min_cycle;Max_cycle;Signal;HPM_P1;HPM_P2
2021/12/26 00:00:28;;;;;;;40.10;10.00;;;0.90;99.90;;;;;;5044635;28;20475;-84
2021/12/26 00:02:54;;;;;;;27.17;9.73;;;0.90;99.90;;;;;;5003523;28;20048;-84
2021/12/26 00:05:21;;;;;;;48.63;10.52;;;0.90;99.90;;;;;;5019503;28;20044;-84
2021/12/26 00:07:48;;;;;;;68.95;10.85;;;1.00;99.90;;;;;;5003686;28;20025;-85
2021/12/26 00:10:20;;;;;;;77.55;10.85;;;0.90;99.90;;;;;;5000883;28;20041;-84
2021/12/26 00:12:47;;;;;;;66.78;10.57;;;0.90;99.90;;;;;;5053685;28;20552;-85
2021/12/26 00:15:13;;;;;;;76.68;11.45;;;0.80;99.90;;;;;;5043013;28;20075;-85
2021/12/26 00:17:39;;;;;;;49.58;10.88;;;0.80;99.90;;;;;;5055966;28;20055;-84
2021/12/26 00:20:07;;;;;;;29.08;9.13;;;0.80;99.90;;;;;;5030285;28;20043;-85
2021/12/26 00:22:34;;;;;;;61.60;10.27;;;0.80;99.90;;;;;;5040536;28;20036;-84
2021/12/26 00:25:00;;;;;;;126.60;12.85;;;0.80;99.90;;;;;;5038115;28;20037;-84
2021/12/26 00:27:26;;;;;;;36.25;9.77;;;0.80;99.90;;;;;;5051821;28;20083;-84
2021/12/26 00:29:52;;;;;;;31.75;9.43;;;0.80;99.90;;;;;;5006274;28;20029;-84
2021/12/26 00:32:17;;;;;;;33.30;9.50;;;0.80;99.90;;;;;;5006857;28;20091;-84
2021/12/26 00:34:44;;;;;;;37.78;10.13;;;0.80;99.90;;;;;;5017064;28;20728;-84
2021/12/26 00:37:11;;;;;;;31.08;10.95;;;0.90;99.90;;;;;;5032503;28;20507;-85
2021/12/26 00:39:37;;;;;;;43.60;9.93;;;0.80;99.90;;;;;;5032706;28;20029;-84
2021/12/26 00:42:03;;;;;;;65.68;12.15;;;0.80;99.90;;;;;;5016184;28;20021;-84
2021/12/26 00:44:29;;;;;;;98.18;11.80;;;0.80;99.90;;;;;;5047460;28;20024;-84
2021/12/26 00:46:55;;;;;;;46.75;11.32;;;0.80;99.90;;;;;;5055334;28;20017;-84
2021/12/26 00:49:22;;;;;;;90.35;12.75;;;0.80;99.90;;;;;;5039429;28;20026;-84
2021/12/26 00:51:49;;;;;;;77.05;11.65;;;0.80;99.90;;;;;;5073160;28;20024;-84
2021/12/26 00:54:15;;;;;;;51.55;9.57;;;0.90;99.90;;;;;;5038215;28;20029;-84
2021/12/26 00:56:41;;;;;;;83.20;10.85;;;0.90;99.90;;;;;;5034016;28;20368;-85
2021/12/26 00:59:07;;;;;;;95.18;12.10;;;0.90;99.90;;;;;;5039023;28;20028;-84
2021/12/26 01:01:36;;;;;;;68.43;10.10;;;0.80;99.90;;;;;;5055367;28;20025;-84
2021/12/26 01:04:02;;;;;;;57.95;11.10;;;0.80;99.90;;;;;;5028131;28;20459;-84
2021/12/26 01:06:28;;;;;;;63.85;10.93;;;0.80;99.90;;;;;;5031659;28;20026;-84
2021/12/26 01:08:57;;;;;;;54.58;10.18;;;0.80;99.90;;;;;;5022219;28;20514;-85
2021/12/26 01:11:39;;;;;;;72.03;11.55;;;0.80;99.90;;;;;;5028615;28;20660;-84
2021/12/26 01:14:09;;;;;;;66.80;10.70;;;0.80;99.90;;;;;;5040921;28;20029;-84
2021/12/26 01:16:37;;;;;;;87.45;11.18;;;0.80;99.90;;;;;;5025219;28;20112;-84
2021/12/26 01:19:12;;;;;;;67.78;10.23;;;0.80;99.90;;;;;;5035702;28;20029;-84
2021/12/26 01:21:38;;;;;;;88.72;11.68;;;0.80;99.90;;;;;;5036079;28;20037;-85
2021/12/26 01:24:08;;;;;;;115.75;12.07;;;0.80;99.90;;;;;;5035376;28;20051;-85
2021/12/26 01:26:35;;;;;;;81.57;9.50;;;0.80;99.90;;;;;;5018793;28;20040;-84
2021/12/26 01:29:02;;;;;;;120.82;11.75;;;0.80;99.90;;;;;;5035753;28;20140;-84
2021/12/26 01:31:27;;;;;;;136.00;13.27;;;0.80;99.90;;;;;;5049510;23;20053;-85
2021/12/26 01:33:57;;;;;;;31.67;10.15;;;0.80;99.90;;;;;;5070577;28;20032;-85
2021/12/26 01:36:23;;;;;;;91.57;11.25;;;0.80;99.90;;;;;;5030686;28;20043;-85
2021/12/26 01:38:48;;;;;;;77.82;11.57;;;0.80;99.90;;;;;;5037722;28;20510;-85
2021/12/26 01:41:17;;;;;;;114.57;14.73;;;0.70;99.90;;;;;;5025569;28;20500;-85
2021/12/26 01:43:47;;;;;;;134.73;13.25;;;0.70;99.90;;;;;;5051065;28;20024;-85
2021/12/26 01:46:14;;;;;;;;;;;0.70;99.90;;;;;;5066119;28;20568;-85
2021/12/26 01:48:40;;;;;;;134.60;14.30;;;0.70;99.90;;;;;;5051087;28;19908;-85
2021/12/26 01:51:05;;;;;;;40.80;9.55;;;0.70;99.90;;;;;;5005165;28;20671;-85
2021/12/26 01:53:37;;;;;;;125.75;14.27;;;0.70;99.90;;;;;;4980616;28;20033;-85
2021/12/26 01:56:06;;;;;;;48.17;10.30;;;0.70;99.90;;;;;;5035608;28;20024;-85
2021/12/26 01:58:33;;;;;;;83.90;11.13;;;0.70;99.90;;;;;;5017647;28;20111;-85
2021/12/26 02:01:08;;;;;;;68.22;12.23;;;0.70;99.90;;;;;;5035349;28;20033;-85
2021/12/26 02:03:34;;;;;;;77.80;11.30;;;0.70;99.90;;;;;;5038354;28;20421;-85
2021/12/26 02:06:01;;;;;;;37.45;10.30;;;0.70;99.90;;;;;;5014207;28;20029;-85
2021/12/26 02:08:26;;;;;;;37.65;10.57;;;0.70;99.90;;;;;;4993137;28;20041;-85
2021/12/26 02:10:52;;;;;;;70.03;12.80;;;0.70;99.90;;;;;;5020576;28;20538;-85
2021/12/26 02:13:18;;;;;;;54.38;14.13;;;0.80;99.90;;;;;;5044799;28;20032;-85
2021/12/26 02:15:43;;;;;;;62.97;11.57;;;0.80;99.90;;;;;;5036352;28;20123;-85
2021/12/26 02:18:11;;;;;;;58.83;10.68;;;0.80;99.90;;;;;;5014961;28;20421;-85
2021/12/26 02:23:19;;;;;;;35.47;9.63;;;0.80;99.90;;;;;;5037228;28;20086;-85
2021/12/26 02:28:27;;;;;;;85.60;11.52;;;0.80;99.90;;;;;;5061288;28;20028;-85
2021/12/26 02:30:55;;;;;;;47.72;9.65;;;0.80;99.90;;;;;;5022450;28;20528;-85
2021/12/26 02:33:20;;;;;;;30.63;9.98;;;0.80;99.90;;;;;;5014439;28;20044;-85
2021/12/26 02:35:48;;;;;;;41.53;10.90;;;0.80;99.90;;;;;;5002877;28;20029;-85
2021/12/26 02:38:15;;;;;;;66.15;10.13;;;0.80;99.90;;;;;;5016887;28;20053;-85
2021/12/26 02:40:42;;;;;;;58.97;11.77;;;0.80;99.90;;;;;;5031149;28;20060;-85
2021/12/26 02:43:09;;;;;;;32.83;9.90;;;0.80;99.90;;;;;;5017657;28;20036;-85
2021/12/26 02:45:35;;;;;;;56.05;11.07;;;0.80;99.90;;;;;;5037317;28;20034;-85
2021/12/26 02:48:01;;;;;;;29.35;9.25;;;0.70;99.90;;;;;;5058143;28;20039;-85
2021/12/26 02:50:30;;;;;;;44.60;10.77;;;0.70;99.90;;;;;;5041661;28;20033;-85
2021/12/26 02:52:58;;;;;;;77.00;10.63;;;0.70;99.90;;;;;;5054028;28;20033;-85
2021/12/26 02:55:24;;;;;;;34.30;9.77;;;0.70;99.90;;;;;;5045421;28;20329;-85
2021/12/26 02:57:56;;;;;;;35.58;10.10;;;0.70;99.90;;;;;;5053884;28;20032;-85
2021/12/26 03:00:25;;;;;;;72.60;11.55;;;0.70;99.90;;;;;;5028699;28;20052;-85
2021/12/26 03:02:53;;;;;;;62.42;10.98;;;0.80;99.90;;;;;;5054156;28;20042;-85
2021/12/26 03:05:19;;;;;;;73.57;10.60;;;0.70;99.90;;;;;;5025539;28;20033;-85
2021/12/26 03:07:46;;;;;;;42.90;10.35;;;0.70;99.90;;;;;;5019717;28;20484;-85
2021/12/26 03:10:21;;;;;;;47.40;10.35;;;0.70;99.90;;;;;;5063076;28;20065;-85
2021/12/26 03:12:48;;;;;;;49.30;11.38;;;0.70;99.90;;;;;;5003133;28;20508;-85
2021/12/26 03:15:14;;;;;;;37.05;9.50;;;0.70;99.90;;;;;;5019205;28;20035;-85
2021/12/26 03:17:40;;;;;;;36.95;9.68;;;0.70;99.90;;;;;;5016038;28;20055;-85
2021/12/26 03:20:18;;;;;;;93.10;12.60;;;0.70;99.90;;;;;;5049414;28;20493;-85
2021/12/26 03:22:44;;;;;;;86.45;11.63;;;0.70;99.90;;;;;;5049893;28;20031;-85
2021/12/26 03:25:16;;;;;;;56.83;12.38;;;0.70;99.90;;;;;;5033601;28;20085;-85
2021/12/26 03:27:42;;;;;;;38.30;9.77;;;0.70;99.90;;;;;;5034039;28;20601;-85
2021/12/26 03:30:09;;;;;;;54.45;10.73;;;0.70;99.90;;;;;;5036971;28;20036;-85
2021/12/26 03:32:35;;;;;;;65.68;11.23;;;0.60;99.90;;;;;;5053793;28;20404;-85
2021/12/26 03:35:01;;;;;;;119.13;14.00;;;0.60;99.90;;;;;;4982459;28;20121;-85
2021/12/26 03:37:28;;;;;;;75.05;11.98;;;0.60;99.90;;;;;;4998826;28;20033;-85
2021/12/26 03:39:55;;;;;;;35.25;10.32;;;0.60;99.90;;;;;;5014636;28;20038;-85
2021/12/26 03:42:21;;;;;;;94.18;11.68;;;0.60;99.90;;;;;;5036473;28;20033;-85
2021/12/26 03:44:48;;;;;;;55.30;10.45;;;0.60;99.90;;;;;;5068475;28;20039;-85
2021/12/26 03:47:14;;;;;;;55.13;10.70;;;0.60;99.90;;;;;;5062706;28;20408;-85
2021/12/26 03:49:40;;;;;;;51.45;10.75;;;0.60;99.90;;;;;;5053077;28;20116;-85
2021/12/26 03:52:06;;;;;;;31.85;10.40;;;0.60;99.90;;;;;;5023503;28;20439;-85
2021/12/26 03:54:31;;;;;;;63.80;10.77;;;0.70;99.90;;;;;;5052754;28;20541;-85
2021/12/26 03:56:57;;;;;;;44.50;12.02;;;0.60;99.90;;;;;;5039278;28;20029;-85
2021/12/26 03:59:23;;;;;;;31.75;10.88;;;0.60;99.90;;;;;;5026698;28;20029;-85
2021/12/26 04:01:48;;;;;;;41.35;11.25;;;0.60;99.90;;;;;;5045487;28;20124;-85
2021/12/26 04:04:14;;;;;;;32.53;10.50;;;0.60;99.90;;;;;;5053146;28;20467;-85
2021/12/26 04:06:40;;;;;;;30.67;10.40;;;0.60;99.90;;;;;;5020669;28;20144;-85
2021/12/26 04:09:08;;;;;;;38.92;11.20;;;0.60;99.90;;;;;;5015632;28;20563;-85
2021/12/26 04:11:35;;;;;;;66.15;12.25;;;0.60;99.90;;;;;;5045944;28;20032;-85
2021/12/26 04:14:02;;;;;;;43.70;11.55;;;0.60;99.90;;;;;;5021942;28;20075;-85
2021/12/26 04:16:27;;;;;;;40.92;10.88;;;0.60;99.90;;;;;;5034165;28;20440;-85
2021/12/26 04:18:53;;;;;;;92.45;12.80;;;0.60;99.90;;;;;;5040705;28;20250;-85
2021/12/26 04:21:19;;;;;;;46.55;10.77;;;0.60;99.90;;;;;;5047469;28;20068;-85
2021/12/26 04:23:44;;;;;;;81.95;13.35;;;0.60;99.90;;;;;;5034161;28;20033;-85
2021/12/26 04:26:10;;;;;;;50.08;11.45;;;0.60;99.90;;;;;;5050333;28;20161;-84
2021/12/26 04:28:35;;;;;;;74.57;12.65;;;0.60;99.90;;;;;;5019612;28;20135;-85
2021/12/26 04:31:01;;;;;;;76.13;13.43;;;0.60;99.90;;;;;;5035822;28;20032;-85
2021/12/26 04:33:30;;;;;;;67.28;12.43;;;0.60;99.90;;;;;;5015739;28;20033;-85
2021/12/26 04:35:56;;;;;;;69.57;12.52;;;0.60;99.90;;;;;;5019246;28;20039;-85
2021/12/26 04:38:21;;;;;;;53.85;13.27;;;0.60;99.90;;;;;;5043032;28;20497;-85
2021/12/26 04:40:47;;;;;;;42.78;12.35;;;0.60;99.90;;;;;;5029202;28;20025;-85
2021/12/26 04:43:13;;;;;;;74.78;12.43;;;0.60;99.90;;;;;;5064399;28;20515;-85
2021/12/26 04:45:38;;;;;;;43.42;13.60;;;0.50;99.90;;;;;;5015146;28;20501;-85
2021/12/26 04:48:04;;;;;;;42.88;11.63;;;0.60;99.90;;;;;;5011709;28;20058;-85
2021/12/26 04:50:30;;;;;;;51.40;11.00;;;0.60;99.90;;;;;;5023421;28;20412;-85
2021/12/26 04:52:57;;;;;;;43.90;12.38;;;0.60;99.90;;;;;;5038240;28;20032;-85
2021/12/26 04:55:25;;;;;;;41.28;12.52;;;0.60;99.90;;;;;;5035320;28;20127;-85
2021/12/26 04:57:51;;;;;;;71.57;12.80;;;0.60;99.90;;;;;;5015534;28;20041;-85
2021/12/26 05:00:22;;;;;;;47.33;13.20;;;0.60;99.90;;;;;;5039639;28;20032;-85
2021/12/26 05:02:48;;;;;;;74.65;12.90;;;0.60;99.90;;;;;;5017313;28;20044;-85
2021/12/26 05:05:15;;;;;;;50.10;12.23;;;0.50;99.90;;;;;;5056084;28;20040;-85
2021/12/26 05:07:44;;;;;;;42.92;12.48;;;0.50;99.90;;;;;;5048841;28;20060;-85
2021/12/26 05:10:13;;;;;;;48.08;12.63;;;0.50;99.90;;;;;;5035632;28;20522;-85
2021/12/26 05:12:40;;;;;;;56.05;12.20;;;0.50;99.90;;;;;;5050963;28;20515;-85
2021/12/26 05:15:08;;;;;;;46.88;11.30;;;0.50;99.90;;;;;;5051622;28;20028;-85
2021/12/26 05:17:33;;;;;;;40.63;11.50;;;0.60;99.90;;;;;;5022902;28;20580;-85
2021/12/26 05:19:59;;;;;;;56.90;12.32;;;0.60;99.90;;;;;;5050776;28;20134;-85
2021/12/26 05:22:25;;;;;;;40.20;10.60;;;0.60;99.90;;;;;;5018461;28;20045;-85
2021/12/26 05:24:51;;;;;;;59.38;11.80;;;0.60;99.90;;;;;;5034088;28;20585;-85
2021/12/26 05:27:18;;;;;;;46.70;10.75;;;0.60;99.90;;;;;;5019987;28;20497;-85
2021/12/26 05:29:43;;;;;;;37.97;11.75;;;0.60;99.90;;;;;;5023548;28;20040;-85
2021/12/26 05:32:09;;;;;;;29.38;10.70;;;0.60;99.90;;;;;;5025951;28;20021;-85
2021/12/26 05:34:35;;;;;;;38.85;10.98;;;0.60;99.90;;;;;;5026580;28;20021;-85
2021/12/26 05:37:00;;;;;;;36.60;11.15;;;0.60;99.90;;;;;;5014921;28;20474;-85
2021/12/26 05:39:26;;;;;;;38.03;10.68;;;0.60;99.90;;;;;;5048342;28;20028;-85
2021/12/26 05:41:52;;;;;;;33.65;10.63;;;0.60;99.90;;;;;;5028494;28;20037;-85
2021/12/26 05:44:18;;;;;;;31.63;10.38;;;0.60;99.90;;;;;;5033579;28;20063;-86
2021/12/26 05:46:45;;;;;;;42.75;10.38;;;0.60;99.90;;;;;;5028193;28;20028;-85
2021/12/26 05:49:11;;;;;;;47.88;11.45;;;0.70;99.90;;;;;;5039434;28;20037;-85
2021/12/26 05:51:37;;;;;;;28.27;10.68;;;0.60;99.90;;;;;;5035624;28;20329;-85
2021/12/26 05:54:03;;;;;;;39.30;10.45;;;0.60;99.90;;;;;;5053240;28;20381;-85
2021/12/26 05:56:31;;;;;;;40.90;11.13;;;0.60;99.90;;;;;;5018450;28;20029;-85
2021/12/26 05:58:57;;;;;;;37.78;10.57;;;0.60;99.90;;;;;;5052067;28;20052;-85
2021/12/26 06:01:22;;;;;;;34.58;10.77;;;0.60;99.90;;;;;;5020294;28;20105;-85
2021/12/26 06:03:48;;;;;;;49.88;12.00;;;0.60;99.90;;;;;;5029047;28;20490;-85
2021/12/26 06:06:13;;;;;;;31.00;10.93;;;0.60;99.90;;;;;;5021258;28;20044;-85
2021/12/26 06:08:39;;;;;;;34.58;11.57;;;0.60;99.90;;;;;;4998207;28;20410;-85
2021/12/26 06:11:05;;;;;;;37.00;9.65;;;0.60;99.90;;;;;;5040795;28;20034;-85
2021/12/26 06:13:31;;;;;;;33.65;10.50;;;0.60;99.90;;;;;;5019103;28;20120;-85
2021/12/26 06:15:58;;;;;;;41.45;10.63;;;0.60;99.90;;;;;;5037367;28;20028;-85
2021/12/26 06:18:24;;;;;;;26.70;9.15;;;0.60;99.90;;;;;;5051362;28;20086;-85
2021/12/26 06:20:49;;;;;;;37.85;10.25;;;0.60;99.90;;;;;;5022085;28;20032;-85
2021/12/26 06:23:15;;;;;;;33.38;10.50;;;0.60;99.90;;;;;;5030409;28;20151;-85
2021/12/26 06:25:41;;;;;;;31.00;9.50;;;0.60;99.90;;;;;;5052123;28;20033;-85
2021/12/26 06:28:07;;;;;;;30.58;9.80;;;0.60;99.90;;;;;;5052541;28;20043;-85
2021/12/26 06:30:33;;;;;;;27.88;10.63;;;0.60;99.90;;;;;;5033174;28;20080;-85
2021/12/26 06:32:58;;;;;;;27.48;9.30;;;0.60;99.90;;;;;;5054539;28;20485;-85
2021/12/26 06:35:27;;;;;;;38.53;8.73;;;0.60;99.90;;;;;;5035334;28;20043;-84
2021/12/26 06:37:53;;;;;;;38.97;10.00;;;0.60;99.90;;;;;;5049387;28;20033;-85
2021/12/26 06:40:19;;;;;;;35.28;10.45;;;0.60;99.90;;;;;;5048527;28;20527;-85
2021/12/26 06:42:50;;;;;;;30.75;9.77;;;0.60;99.90;;;;;;5067899;28;20031;-85
2021/12/26 06:45:18;;;;;;;29.73;10.52;;;0.60;99.90;;;;;;5037450;28;20531;-85
2021/12/26 06:47:49;;;;;;;33.00;10.02;;;0.60;99.90;;;;;;5023884;28;20028;-85
2021/12/26 06:50:16;;;;;;;33.15;9.35;;;0.60;99.90;;;;;;5006187;28;20041;-85
2021/12/26 06:52:43;;;;;;;27.88;8.85;;;0.60;99.90;;;;;;5014566;28;20112;-85
2021/12/26 06:55:10;;;;;;;27.98;8.85;;;0.70;99.90;;;;;;5041433;28;20025;-85
2021/12/26 06:57:36;;;;;;;23.58;9.02;;;0.70;99.90;;;;;;5031920;28;20348;-85
2021/12/26 07:00:08;;;;;;;34.50;9.63;;;0.70;99.90;;;;;;5036328;28;20489;-85
2021/12/26 07:02:34;;;;;;;23.38;8.00;;;0.60;99.90;;;;;;5054016;28;20032;-85
2021/12/26 07:05:00;;;;;;;23.10;8.70;;;0.70;99.90;;;;;;5021604;28;20045;-85
2021/12/26 07:07:25;;;;;;;32.10;9.45;;;0.70;99.90;;;;;;5037301;28;20036;-85
2021/12/26 07:09:54;;;;;;;23.63;8.32;;;0.60;99.90;;;;;;5013023;28;20033;-84
2021/12/26 07:12:19;;;;;;;23.70;7.93;;;0.60;99.90;;;;;;5013862;28;20521;-84
2021/12/26 07:14:45;;;;;;;24.73;8.65;;;0.70;99.90;;;;;;5019855;28;20041;-85
2021/12/26 07:17:10;;;;;;;26.90;7.97;;;0.70;99.90;;;;;;5015455;28;20171;-85
2021/12/26 07:19:37;;;;;;;25.80;9.07;;;0.70;99.90;;;;;;5069250;28;20032;-83
2021/12/26 07:22:04;;;;;;;21.30;8.18;;;0.70;99.90;;;;;;5050107;28;20579;-84
2021/12/26 07:24:30;;;;;;;21.10;7.95;;;0.70;99.90;;;;;;5020694;28;20494;-83
2021/12/26 07:26:56;;;;;;;24.60;8.10;;;0.70;99.90;;;;;;5048872;28;20090;-84
2021/12/26 07:29:21;;;;;;;23.35;8.43;;;0.70;99.90;;;;;;4996392;28;20371;-84
2021/12/26 07:31:47;;;;;;;23.67;8.68;;;0.70;99.90;;;;;;5013315;28;20044;-83
2021/12/26 07:34:13;;;;;;;22.75;7.65;;;0.70;99.90;;;;;;4997285;28;20572;-83
2021/12/26 07:36:40;;;;;;;19.85;7.47;;;0.80;99.90;;;;;;5020255;28;20119;-83
2021/12/26 07:39:05;;;;;;;22.98;8.35;;;0.80;99.90;;;;;;5020524;28;20037;-84
2021/12/26 07:41:31;;;;;;;24.50;8.43;;;0.80;99.90;;;;;;5046571;28;20485;-84
2021/12/26 07:43:57;;;;;;;26.05;8.65;;;0.80;99.90;;;;;;5025515;28;20524;-83
2021/12/26 07:46:22;;;;;;;19.58;7.15;;;0.80;99.90;;;;;;5046329;28;20025;-84
2021/12/26 07:48:48;;;;;;;27.95;8.38;;;0.80;99.90;;;;;;5018808;28;20025;-84
2021/12/26 07:51:14;;;;;;;27.65;7.93;;;0.80;99.90;;;;;;5022406;28;20462;-84
2021/12/26 07:53:40;;;;;;;24.98;8.00;;;0.80;99.90;;;;;;5050798;28;20554;-84
2021/12/26 07:56:05;;;;;;;24.15;8.20;;;0.80;99.90;;;;;;5017016;28;20382;-84
2021/12/26 07:58:31;;;;;;;29.17;7.97;;;0.80;99.90;;;;;;5000490;28;20057;-84
2021/12/26 08:00:57;;;;;;;23.05;8.77;;;0.80;99.90;;;;;;5017308;28;20051;-84
2021/12/26 08:03:22;;;;;;;27.70;9.27;;;0.80;99.90;;;;;;5052902;28;20040;-84
2021/12/26 08:05:48;;;;;;;28.75;8.25;;;0.80;99.90;;;;;;5064062;28;20039;-84
2021/12/26 08:08:14;;;;;;;28.40;8.65;;;0.80;99.90;;;;;;5046773;28;20610;-84
2021/12/26 08:10:40;;;;;;;21.88;8.13;;;0.90;99.90;;;;;;5032200;28;20029;-84
2021/12/26 08:13:06;;;;;;;28.65;7.93;;;0.90;99.90;;;;;;5032370;28;20086;-84
2021/12/26 08:15:31;;;;;;;23.08;8.52;;;0.90;99.90;;;;;;5013935;28;20052;-84
2021/12/26 08:17:57;;;;;;;21.75;7.53;;;0.90;99.90;;;;;;5033749;28;20021;-84
2021/12/26 08:20:23;;;;;;;27.38;8.15;;;0.90;99.90;;;;;;5035799;28;20048;-84
2021/12/26 08:22:48;;;;;;;27.90;7.70;;;1.00;99.90;;;;;;5048271;28;20060;-84
2021/12/26 08:25:14;;;;;;;18.88;7.97;;;1.00;99.90;;;;;;5018694;28;20127;-84
2021/12/26 08:27:40;;;;;;;23.60;8.38;;;1.00;99.90;;;;;;5032778;28;20090;-84
2021/12/26 08:30:07;;;;;;;29.30;8.77;;;1.10;99.90;;;;;;5023503;28;20501;-83
2021/12/26 08:32:35;;;;;;;25.75;9.27;;;1.10;99.90;;;;;;5045991;28;20029;-84
2021/12/26 08:35:04;;;;;;;28.98;8.45;;;1.10;99.90;;;;;;5052150;28;20029;-83
2021/12/26 08:37:30;;;;;;;22.80;7.85;;;1.10;99.90;;;;;;5002170;28;20098;-84
2021/12/26 08:39:56;;;;;;;25.52;8.43;;;1.10;99.90;;;;;;5023180;28;20426;-84
2021/12/26 08:42:22;;;;;;;27.42;8.90;;;1.10;99.90;;;;;;5048356;28;20063;-83
2021/12/26 08:44:49;;;;;;;24.02;7.75;;;1.10;99.90;;;;;;5048390;28;20032;-84
2021/12/26 08:47:15;;;;;;;23.88;8.00;;;1.20;99.90;;;;;;5001500;28;20571;-84
2021/12/26 08:49:41;;;;;;;24.00;7.95;;;1.20;99.90;;;;;;5033586;28;20086;-84
2021/12/26 08:52:08;;;;;;;27.15;7.93;;;1.20;99.90;;;;;;4998310;28;20063;-84
2021/12/26 08:54:35;;;;;;;22.42;8.13;;;1.20;99.90;;;;;;5007807;28;20030;-84
2021/12/26 08:57:01;;;;;;;22.67;7.30;;;1.30;99.90;;;;;;4980880;28;20036;-84
2021/12/26 08:59:30;;;;;;;23.98;7.80;;;1.30;99.90;;;;;;5044140;28;20500;-84
2021/12/26 09:02:03;;;;;;;22.70;7.55;;;1.30;99.90;;;;;;5017572;28;20045;-84
2021/12/26 09:04:29;;;;;;;25.20;8.00;;;1.30;99.90;;;;;;5012928;28;20053;-84
2021/12/26 09:06:56;;;;;;;22.92;8.05;;;1.30;99.90;;;;;;5037298;28;20033;-84
2021/12/26 09:09:21;;;;;;;22.27;8.25;;;1.40;99.90;;;;;;5047663;28;20101;-83
2021/12/26 09:11:48;;;;;;;19.27;7.47;;;1.40;99.90;;;;;;5051365;28;20115;-84
2021/12/26 09:14:14;;;;;;;26.13;8.75;;;1.40;99.90;;;;;;5053224;28;20025;-84
2021/12/26 09:16:40;;;;;;;23.77;8.32;;;1.50;99.90;;;;;;5026695;28;20044;-84
2021/12/26 09:19:05;;;;;;;22.55;8.15;;;1.50;99.90;;;;;;5067765;28;20103;-84
2021/12/26 09:21:31;;;;;;;23.80;8.45;;;1.50;99.90;;;;;;5025869;28;20036;-84
2021/12/26 09:23:57;;;;;;;19.25;7.32;;;1.60;99.90;;;;;;5026638;28;20087;-84
2021/12/26 09:26:23;;;;;;;21.15;7.40;;;1.60;99.90;;;;;;5049315;28;20119;-84
2021/12/26 09:28:49;;;;;;;19.92;7.68;;;1.60;99.90;;;;;;5038615;28;20044;-84
2021/12/26 09:31:15;;;;;;;19.85;7.35;;;1.70;99.90;;;;;;5031336;28;20036;-83
2021/12/26 09:33:41;;;;;;;21.58;7.63;;;1.80;99.90;;;;;;5069953;28;20058;-83
2021/12/26 09:36:07;;;;;;;22.02;7.20;;;1.70;99.90;;;;;;5050702;28;20048;-84
2021/12/26 09:38:32;;;;;;;21.40;8.10;;;1.70;99.90;;;;;;5034863;28;20040;-84
2021/12/26 09:40:59;;;;;;;19.38;7.10;;;1.70;99.90;;;;;;5017228;28;20030;-83
2021/12/26 09:43:25;;;;;;;26.08;8.20;;;1.70;99.90;;;;;;5020246;28;20040;-83
2021/12/26 09:45:51;;;;;;;22.05;7.85;;;1.70;99.90;;;;;;5051184;28;20028;-84
2021/12/26 09:48:17;;;;;;;22.67;8.00;;;1.70;99.90;;;;;;5003349;28;20393;-84
2021/12/26 09:50:43;;;;;;;23.40;9.75;;;1.60;99.90;;;;;;5042205;28;20436;-83
2021/12/26 09:53:09;;;;;;;21.92;8.40;;;1.60;99.90;;;;;;5031725;28;20025;-84
2021/12/26 09:55:35;;;;;;;21.55;7.88;;;1.60;99.90;;;;;;5026525;28;20033;-83
2021/12/26 09:58:00;;;;;;;19.58;7.78;;;1.60;99.90;;;;;;5032842;28;20090;-84
2021/12/26 10:00:33;;;;;;;23.17;7.95;;;1.70;99.90;;;;;;5013811;28;20037;-84
2021/12/26 10:03:20;;;;;;;25.08;8.27;;;1.70;99.90;;;;;;5011519;28;20033;-83
2021/12/26 10:06:09;;;;;;;26.02;8.02;;;1.70;99.90;;;;;;5011265;28;20033;-84
2021/12/26 10:08:53;;;;;;;24.48;7.95;;;1.80;99.90;;;;;;5011785;28;20038;-84
2021/12/26 10:11:21;;;;;;;22.33;7.90;;;1.80;99.90;;;;;;5049727;28;20496;-84
2021/12/26 10:13:56;;;;;;;26.55;8.23;;;1.80;99.90;;;;;;5038579;28;20098;-84
2021/12/26 10:16:29;;;;;;;21.98;8.52;;;1.80;99.90;;;;;;4995529;28;20037;-84
2021/12/26 10:18:57;;;;;;;24.40;9.65;;;1.80;99.90;;;;;;5033306;28;20026;-84
2021/12/26 10:21:38;;;;;;;22.40;7.75;;;1.80;99.90;;;;;;5016773;28;20036;-83
2021/12/26 10:24:15;;;;;;;26.95;9.25;;;1.70;99.90;;;;;;5019783;28;20390;-83
2021/12/26 10:26:47;;;;;;;25.92;9.02;;;1.60;99.90;;;;;;5048925;28;20607;-84
2021/12/26 10:29:33;;;;;;;23.45;8.70;;;1.60;99.90;;;;;;5028563;28;20469;-84
2021/12/26 10:32:01;;;;;;;26.17;8.35;;;1.60;99.90;;;;;;4998828;28;20486;-83
2021/12/26 10:34:42;;;;;;;28.13;8.68;;;1.50;99.90;;;;;;5040717;28;20420;-84
2021/12/26 10:37:21;;;;;;;24.10;8.73;;;1.50;99.90;;;;;;5045616;28;20094;-83
2021/12/26 10:39:59;;;;;;;22.02;7.70;;;1.60;99.90;;;;;;5041794;28;20032;-83
2021/12/26 10:42:32;;;;;;;17.08;7.45;;;1.60;99.90;;;;;;5018645;28;20564;-83
2021/12/26 10:45:01;;;;;;;22.98;7.30;;;1.60;99.90;;;;;;5014409;28;20098;-84
2021/12/26 10:47:30;;;;;;;19.85;7.63;;;1.60;99.90;;;;;;5038714;28;20087;-83
2021/12/26 10:50:07;;;;;;;23.38;8.25;;;1.60;99.90;;;;;;5017670;28;20115;-83
2021/12/26 10:52:49;;;;;;;22.50;8.13;;;1.60;99.90;;;;;;4992982;28;20033;-83
2021/12/26 10:55:18;;;;;;;20.42;7.72;;;1.50;99.90;;;;;;5025761;28;20488;-84
2021/12/26 10:57:46;;;;;;;19.88;7.40;;;1.60;99.90;;;;;;5039220;28;20029;-83
2021/12/26 11:00:15;;;;;;;21.23;7.93;;;1.60;99.90;;;;;;5018243;28;20378;-83
2021/12/26 11:02:43;;;;;;;20.05;7.72;;;1.70;99.90;;;;;;5035640;28;20405;-83
2021/12/26 11:05:19;;;;;;;20.73;7.53;;;1.80;99.90;;;;;;5054090;28;20033;-83
2021/12/26 11:07:48;;;;;;;21.92;7.93;;;1.80;99.90;;;;;;5015318;28;20549;-83
2021/12/26 11:10:31;;;;;;;19.27;8.02;;;1.90;99.90;;;;;;5014828;28;20072;-84
2021/12/26 11:13:01;;;;;;;22.55;8.27;;;1.90;99.90;;;;;;5023133;28;20029;-84
2021/12/26 11:15:32;;;;;;;23.70;7.00;;;1.90;99.90;;;;;;5049687;28;20412;-84
2021/12/26 11:18:01;;;;;;;16.77;6.47;;;2.00;99.90;;;;;;5053361;28;20030;-84
2021/12/26 11:20:38;;;;;;;19.52;6.68;;;2.00;99.90;;;;;;5018923;28;20060;-84
2021/12/26 11:23:15;;;;;;;18.38;7.50;;;2.00;99.90;;;;;;5018685;28;20086;-84
2021/12/26 11:25:52;;;;;;;14.90;6.18;;;2.10;99.90;;;;;;5035969;28;20116;-83
2021/12/26 11:28:26;;;;;;;20.30;7.15;;;2.10;99.90;;;;;;5021034;28;20059;-84
2021/12/26 11:30:57;;;;;;;15.43;6.57;;;2.10;99.90;;;;;;5023879;28;20033;-83
2021/12/26 11:33:23;;;;;;;16.40;7.03;;;2.20;99.90;;;;;;5018134;28;20458;-83
2021/12/26 11:35:50;;;;;;;24.67;8.20;;;2.20;99.90;;;;;;5033150;28;20112;-84
2021/12/26 11:38:19;;;;;;;21.58;7.78;;;2.20;99.90;;;;;;5019233;28;20031;-83
2021/12/26 11:40:50;;;;;;;19.83;8.10;;;2.30;99.90;;;;;;5057247;28;20117;-84
2021/12/26 11:43:39;;;;;;;17.92;6.88;;;2.30;99.90;;;;;;5040606;28;20040;-84
2021/12/26 11:46:42;;;;;;;20.90;8.45;;;2.20;99.90;;;;;;5052074;28;20063;-84
2021/12/26 11:49:33;;;;;;;18.00;6.55;;;2.30;99.90;;;;;;5027511;28;20033;-84
2021/12/26 11:52:38;;;;;;;20.27;7.38;;;2.30;99.90;;;;;;5025164;28;20025;-83
2021/12/26 11:55:28;;;;;;;21.55;7.38;;;2.30;99.90;;;;;;5036019;28;20029;-84
2021/12/26 11:58:47;;;;;;;17.83;7.03;;;2.30;99.90;;;;;;5048027;28;20409;-84
2021/12/26 12:01:15;;;;;;;19.70;7.25;;;2.20;99.90;;;;;;4955592;28;20033;-84
2021/12/26 12:03:40;;;;;;;18.17;7.68;;;2.20;99.90;;;;;;5031058;28;20022;-84
2021/12/26 12:06:06;;;;;;;24.27;9.13;;;2.20;99.90;;;;;;5036478;28;20032;-83
2021/12/26 12:08:35;;;;;;;21.05;8.18;;;2.20;99.90;;;;;;5053069;28;20033;-84
2021/12/26 12:11:07;;;;;;;21.17;7.82;;;2.10;99.90;;;;;;5027553;28;20496;-83
2021/12/26 12:13:39;;;;;;;18.60;7.78;;;2.10;99.90;;;;;;5070971;28;20052;-84
2021/12/26 12:16:08;;;;;;;24.08;8.52;;;2.10;99.90;;;;;;5030926;28;20020;-84
2021/12/26 12:18:35;;;;;;;26.13;8.88;;;2.00;99.90;;;;;;5049060;28;20056;-84
2021/12/26 12:21:33;;;;;;;21.98;7.85;;;2.00;99.90;;;;;;5019434;28;20037;-84
2021/12/26 12:24:07;;;;;;;22.42;7.47;;;2.00;99.90;;;;;;5008610;28;20579;-84
2021/12/26 12:26:48;;;;;;;25.13;8.30;;;2.00;99.90;;;;;;5030180;28;20367;-84
2021/12/26 12:29:28;;;;;;;23.65;8.75;;;1.90;99.90;;;;;;5026558;28;20127;-84
2021/12/26 12:32:06;;;;;;;;;;;1.90;99.90;;;;;;5034584;28;20033;-84
2021/12/26 12:34:47;;;;;;;21.15;7.22;;;1.90;99.90;;;;;;5063485;28;19920;-83
2021/12/26 12:37:35;;;;;;;26.60;8.55;;;1.90;99.90;;;;;;5033148;28;20164;-84
2021/12/26 12:40:06;;;;;;;26.65;9.07;;;1.90;99.90;;;;;;5054799;28;20033;-84
2021/12/26 12:42:34;;;;;;;29.65;9.25;;;2.00;99.90;;;;;;5032483;28;20370;-83
2021/12/26 12:45:00;;;;;;;25.77;9.02;;;2.00;99.90;;;;;;5016145;28;20494;-84
2021/12/26 12:47:26;;;;;;;30.95;9.57;;;2.00;99.90;;;;;;4997405;28;20091;-84
2021/12/26 12:49:54;;;;;;;22.75;8.77;;;2.00;99.90;;;;;;5022502;28;20051;-84
2021/12/26 12:52:40;;;;;;;19.25;8.40;;;2.00;99.90;;;;;;5050041;28;20057;-84
2021/12/26 12:55:36;;;;;;;27.08;8.77;;;2.00;99.90;;;;;;5051916;28;20155;-84